sensor_id;sensor_type;location;lat;lon;timestamp;temperature;humidity
24087;DHT22;22893;50.572;7.234;2023-04-03T00:01:06;21.60;56.80
24087;DHT22;22893;50.572;7.234;2023-04-03T00:03:34;21.60;56.00
24087;DHT22;22893;50.572;7.234;2023-04-03T00:06:02;21.50;56.50
24087;DHT22;22893;50.572;7.234;2023-04-03T00:08:30;21.50;56.50
24087;DHT22;22893;50.572;7.234;2023-04-03T00:10:59;21.50;56.60
24087;DHT22;22893;50.572;7.234;2023-04-03T00:13:26;21.60;56.50
24087;DHT22;22893;50.572;7.234;2023-04-03T00:15:54;21.50;56.40
24087;DHT22;22893;50.572;7.234;2023-04-03T00:18:22;21.60;56.50
24087;DHT22;22893;50.572;7.234;2023-04-03T00:20:49;21.60;56.40
24087;DHT22;22893;50.572;7.234;2023-04-03T00:23:17;21.60;56.40
24087;DHT22;22893;50.572;7.234;2023-04-03T00:25:45;21.60;56.40
24087;DHT22;22893;50.572;7.234;2023-04-03T00:28:13;21.50;56.20
24087;DHT22;22893;50.572;7.234;2023-04-03T00:30:40;21.60;55.80
24087;DHT22;22893;50.572;7.234;2023-04-03T00:33:13;21.50;55.20
24087;DHT22;22893;50.572;7.234;2023-04-03T00:35:41;21.50;55.30
24087;DHT22;22893;50.572;7.234;2023-04-03T00:38:09;21.50;55.10
24087;DHT22;22893;50.572;7.234;2023-04-03T00:40:39;21.40;55.00
24087;DHT22;22893;50.572;7.234;2023-04-03T00:43:16;21.40;55.10
24087;DHT22;22893;50.572;7.234;2023-04-03T00:45:42;21.50;55.00
24087;DHT22;22893;50.572;7.234;2023-04-03T00:48:18;21.40;53.50
24087;DHT22;22893;50.572;7.234;2023-04-03T00:50:43;21.40;54.60
24087;DHT22;22893;50.572;7.234;2023-04-03T00:53:18;21.40;54.60
24087;DHT22;22893;50.572;7.234;2023-04-03T00:55:42;21.40;54.30
24087;DHT22;22893;50.572;7.234;2023-04-03T00:58:10;21.40;54.90
24087;DHT22;22893;50.572;7.234;2023-04-03T01:00:41;21.40;54.30
24087;DHT22;22893;50.572;7.234;2023-04-03T01:03:09;21.40;53.80
24087;DHT22;22893;50.572;7.234;2023-04-03T01:05:37;21.30;53.40
24087;DHT22;22893;50.572;7.234;2023-04-03T01:08:05;21.30;53.90
24087;DHT22;22893;50.572;7.234;2023-04-03T01:10:33;21.30;54.00
24087;DHT22;22893;50.572;7.234;2023-04-03T01:13:01;21.30;54.00
24087;DHT22;22893;50.572;7.234;2023-04-03T01:15:29;21.30;54.20
24087;DHT22;22893;50.572;7.234;2023-04-03T01:17:58;21.30;53.90
24087;DHT22;22893;50.572;7.234;2023-04-03T01:25:57;21.30;54.30
24087;DHT22;22893;50.572;7.234;2023-04-03T01:28:28;21.30;53.10
24087;DHT22;22893;50.572;7.234;2023-04-03T01:31:20;21.30;53.70
24087;DHT22;22893;50.572;7.234;2023-04-03T01:33:48;21.30;54.00
24087;DHT22;22893;50.572;7.234;2023-04-03T01:36:24;21.30;53.30
24087;DHT22;22893;50.572;7.234;2023-04-03T01:38:55;21.30;54.20
24087;DHT22;22893;50.572;7.234;2023-04-03T01:41:23;21.20;53.90
24087;DHT22;22893;50.572;7.234;2023-04-03T01:43:52;21.20;53.70
24087;DHT22;22893;50.572;7.234;2023-04-03T01:46:19;21.20;53.40
24087;DHT22;22893;50.572;7.234;2023-04-03T01:48:48;21.20;53.60
24087;DHT22;22893;50.572;7.234;2023-04-03T01:51:16;21.20;53.90
24087;DHT22;22893;50.572;7.234;2023-04-03T20:19:27;22.10;53.00
24087;DHT22;22893;50.572;7.234;2023-04-03T20:21:56;22.20;53.10
24087;DHT22;22893;50.572;7.234;2023-04-03T20:24:26;22.10;53.00
24087;DHT22;22893;50.572;7.234;2023-04-03T20:26:56;22.10;53.00
24087;DHT22;22893;50.572;7.234;2023-04-03T20:29:24;22.20;53.10
24087;DHT22;22893;50.572;7.234;2023-04-03T20:31:52;22.20;53.10
24087;DHT22;22893;50.572;7.234;2023-04-03T20:34:20;22.20;53.10
24087;DHT22;22893;50.572;7.234;2023-04-03T20:36:48;22.20;53.10
24087;DHT22;22893;50.572;7.234;2023-04-03T20:39:15;22.20;53.10
24087;DHT22;22893;50.572;7.234;2023-04-03T20:41:44;22.20;53.20
24087;DHT22;22893;50.572;7.234;2023-04-03T20:44:12;22.20;53.20
24087;DHT22;22893;50.572;7.234;2023-04-03T20:46:41;22.20;53.20
24087;DHT22;22893;50.572;7.234;2023-04-03T20:49:09;22.20;53.20
24087;DHT22;22893;50.572;7.234;2023-04-03T20:51:37;22.20;53.00
24087;DHT22;22893;50.572;7.234;2023-04-03T20:54:05;22.20;53.20
24087;DHT22;22893;50.572;7.234;2023-04-03T20:56:32;22.10;53.30
24087;DHT22;22893;50.572;7.234;2023-04-03T20:59:00;22.20;53.40
24087;DHT22;22893;50.572;7.234;2023-04-03T21:01:30;22.20;53.40
24087;DHT22;22893;50.572;7.234;2023-04-03T21:04:03;22.20;53.40
24087;DHT22;22893;50.572;7.234;2023-04-03T21:20:44;22.10;53.50
24087;DHT22;22893;50.572;7.234;2023-04-03T21:23:13;22.10;53.60
24087;DHT22;22893;50.572;7.234;2023-04-03T21:25:41;22.10;53.70
24087;DHT22;22893;50.572;7.234;2023-04-03T21:28:09;22.10;53.70
24087;DHT22;22893;50.572;7.234;2023-04-03T21:30:37;22.10;53.80
24087;DHT22;22893;50.572;7.234;2023-04-03T21:33:04;22.10;53.80
24087;DHT22;22893;50.572;7.234;2023-04-03T21:35:32;22.10;53.70
24087;DHT22;22893;50.572;7.234;2023-04-03T21:37:59;22.10;53.70
24087;DHT22;22893;50.572;7.234;2023-04-03T21:40:27;22.10;53.70
24087;DHT22;22893;50.572;7.234;2023-04-03T21:42:54;22.10;53.60
24087;DHT22;22893;50.572;7.234;2023-04-03T21:45:22;22.10;53.80
24087;DHT22;22893;50.572;7.234;2023-04-03T21:47:50;22.10;53.30
24087;DHT22;22893;50.572;7.234;2023-04-03T21:50:18;22.10;52.60
24087;DHT22;22893;50.572;7.234;2023-04-03T21:52:46;22.10;52.40
24087;DHT22;22893;50.572;7.234;2023-04-03T21:55:13;22.10;52.90
24087;DHT22;22893;50.572;7.234;2023-04-03T21:57:41;22.10;52.80
24087;DHT22;22893;50.572;7.234;2023-04-03T22:00:09;22.10;53.10
24087;DHT22;22893;50.572;7.234;2023-04-03T22:02:39;22.10;53.50
24087;DHT22;22893;50.572;7.234;2023-04-03T22:05:07;22.10;52.90
24087;DHT22;22893;50.572;7.234;2023-04-03T22:07:35;22.10;53.00
24087;DHT22;22893;50.572;7.234;2023-04-03T22:10:03;22.10;53.20
24087;DHT22;22893;50.572;7.234;2023-04-03T22:12:31;22.10;53.30
24087;DHT22;22893;50.572;7.234;2023-04-03T22:14:59;22.10;52.90
24087;DHT22;22893;50.572;7.234;2023-04-03T22:17:29;22.00;52.80
24087;DHT22;22893;50.572;7.234;2023-04-03T22:19:56;22.10;53.10
24087;DHT22;22893;50.572;7.234;2023-04-03T22:22:24;22.10;53.80
24087;DHT22;22893;50.572;7.234;2023-04-03T22:24:52;22.00;52.60
24087;DHT22;22893;50.572;7.234;2023-04-03T22:27:21;22.00;52.50
24087;DHT22;22893;50.572;7.234;2023-04-03T22:29:48;22.00;52.80
24087;DHT22;22893;50.572;7.234;2023-04-03T22:32:16;22.10;53.10
24087;DHT22;22893;50.572;7.234;2023-04-03T22:34:43;22.00;52.70
24087;DHT22;22893;50.572;7.234;2023-04-03T22:37:13;22.00;52.40
24087;DHT22;22893;50.572;7.234;2023-04-03T22:39:40;22.00;52.50
24087;DHT22;22893;50.572;7.234;2023-04-03T22:42:08;22.00;52.30
24087;DHT22;22893;50.572;7.234;2023-04-03T22:44:36;22.00;52.60
24087;DHT22;22893;50.572;7.234;2023-04-03T22:47:03;22.00;52.20
24087;DHT22;22893;50.572;7.234;2023-04-03T22:49:31;22.00;52.00
24087;DHT22;22893;50.572;7.234;2023-04-03T22:51:59;22.00;52.50
24087;DHT22;22893;50.572;7.234;2023-04-03T22:54:26;22.00;52.70
24087;DHT22;22893;50.572;7.234;2023-04-03T22:56:54;22.00;52.50
24087;DHT22;22893;50.572;7.234;2023-04-03T22:59:22;22.00;52.50
24087;DHT22;22893;50.572;7.234;2023-04-03T23:01:49;22.00;52.00
24087;DHT22;22893;50.572;7.234;2023-04-03T23:04:17;22.00;52.20
24087;DHT22;22893;50.572;7.234;2023-04-03T23:06:44;22.00;52.00
24087;DHT22;22893;50.572;7.234;2023-04-03T23:09:12;22.00;52.30
24087;DHT22;22893;50.572;7.234;2023-04-03T23:11:40;22.00;52.30
24087;DHT22;22893;50.572;7.234;2023-04-03T23:14:08;22.00;52.10
24087;DHT22;22893;50.572;7.234;2023-04-03T23:16:35;22.00;51.80
24087;DHT22;22893;50.572;7.234;2023-04-03T23:19:03;22.00;51.60
24087;DHT22;22893;50.572;7.234;2023-04-03T23:21:30;21.90;51.40
24087;DHT22;22893;50.572;7.234;2023-04-03T23:23:58;21.90;52.30
24087;DHT22;22893;50.572;7.234;2023-04-03T23:26:26;21.90;52.00
24087;DHT22;22893;50.572;7.234;2023-04-03T23:28:54;21.90;52.40
24087;DHT22;22893;50.572;7.234;2023-04-03T23:31:21;21.90;52.40
24087;DHT22;22893;50.572;7.234;2023-04-03T23:33:51;22.00;52.10
24087;DHT22;22893;50.572;7.234;2023-04-03T23:36:18;21.90;51.20
24087;DHT22;22893;50.572;7.234;2023-04-03T23:38:46;21.90;52.70
24087;DHT22;22893;50.572;7.234;2023-04-03T23:41:14;21.90;52.10
24087;DHT22;22893;50.572;7.234;2023-04-03T23:43:41;21.90;51.80
24087;DHT22;22893;50.572;7.234;2023-04-03T23:46:09;21.90;51.70
24087;DHT22;22893;50.572;7.234;2023-04-03T23:48:36;21.90;51.10
24087;DHT22;22893;50.572;7.234;2023-04-03T23:51:04;21.90;51.50
24087;DHT22;22893;50.572;7.234;2023-04-03T23:53:32;21.90;51.50
24087;DHT22;22893;50.572;7.234;2023-04-03T23:55:59;21.90;51.80
24087;DHT22;22893;50.572;7.234;2023-04-03T23:58:27;21.90;51.60
